Time;durP1;ratioP1;P1;durP2;ratioP2;P2;SDS_P1;SDS_P2;PMS_P1;PMS_P2;Temp;Humidity;BMP_temperature;BMP_pressure;BME280_temperature;BME280_humidity;BME280_pressure;Samples;Min_cycle;Max_cycle;Signal;HPM_P1;HPM_P2
2023/12/18 00:00:34;;;;;;;15.80;10.23;;;;;;;;;;779019;177;816211;-58
2023/12/18 00:03:00;;;;;;;12.60;8.67;;;;;;;;;;773041;178;918549;-58
2023/12/18 00:05:25;;;;;;;14.40;10.27;;;;;;;;;;778999;178;623775;-66
2023/12/18 00:07:51;;;;;;;17.90;9.90;;;;;;;;;;771699;179;634896;-66
2023/12/18 00:10:17;;;;;;;17.37;10.70;;;;;;;;;;777744;181;618991;-59
2023/12/18 00:12:43;;;;;;;18.87;9.53;;;;;;;;;;775128;177;915151;-66
2023/12/18 00:15:09;;;;;;;13.73;9.57;;;;;;;;;;775641;178;627732;-58
2023/12/18 00:17:35;;;;;;;19.50;11.10;;;;;;;;;;779733;180;631425;-59
2023/12/18 00:20:01;;;;;;;17.73;11.33;;;;;;;;;;775215;179;631586;-66
2023/12/18 00:22:27;;;;;;;15.63;9.67;;;;;;;;;;764303;179;631823;-67
2023/12/18 00:24:52;;;;;;;19.80;10.73;;;;;;;;;;780723;180;639550;-67
2023/12/18 00:27:18;;;;;;;18.80;11.00;;;;;;;;;;768467;180;625719;-67
2023/12/18 00:29:44;;;;;;;15.83;11.10;;;;;;;;;;776026;181;642338;-63
2023/12/18 00:32:10;;;;;;;16.73;10.53;;;;;;;;;;776670;180;629844;-59
2023/12/18 00:34:36;;;;;;;22.10;12.70;;;;;;;;;;779103;178;613448;-66
2023/12/18 00:37:02;;;;;;;19.87;10.50;;;;;;;;;;779311;180;622235;-66
2023/12/18 00:39:27;;;;;;;19.15;12.13;;;;;;;;;;776986;177;619013;-66
2023/12/18 00:41:53;;;;;;;19.23;11.70;;;;;;;;;;778574;180;629524;-66
2023/12/18 00:44:19;;;;;;;16.47;11.00;;;;;;;;;;777552;178;635971;-59
2023/12/18 00:46:45;;;;;;;20.27;12.63;;;;;;;;;;777847;180;629515;-58
2023/12/18 00:49:11;;;;;;;16.73;10.87;;;;;;;;;;768713;181;634660;-59
2023/12/18 00:51:37;;;;;;;15.80;10.30;;;;;;;;;;772423;180;618898;-58
2023/12/18 00:54:02;;;;;;;19.23;10.70;;;;;;;;;;778680;178;623805;-66
2023/12/18 00:56:30;;;;;;;15.83;10.60;;;;;;;;;;773700;180;624516;-59
2023/12/18 00:58:54;;;;;;;16.50;11.20;;;;;;;;;;773855;181;626521;-58
2023/12/18 01:01:20;;;;;;;15.73;9.40;;;;;;;;;;769783;182;616206;-66
2023/12/18 01:03:46;;;;;;;14.60;10.00;;;;;;;;;;774050;178;918727;-59
2023/12/18 01:06:12;;;;;;;17.57;10.10;;;;;;;;;;777997;181;817305;-66
2023/12/18 01:08:38;;;;;;;17.83;9.63;;;;;;;;;;776355;180;620393;-68
2023/12/18 01:11:03;;;;;;;19.87;10.40;;;;;;;;;;777894;179;624135;-67
2023/12/18 01:13:29;;;;;;;23.63;9.70;;;;;;;;;;780112;180;632840;-59
2023/12/18 01:15:56;;;;;;;16.43;10.83;;;;;;;;;;780189;180;652278;-66
2023/12/18 01:18:21;;;;;;;17.60;10.73;;;;;;;;;;770885;179;635995;-67
2023/12/18 01:20:47;;;;;;;16.77;11.33;;;;;;;;;;783006;180;630194;-58
2023/12/18 01:23:13;;;;;;;14.00;8.97;;;;;;;;;;775434;177;629644;-59
2023/12/18 01:25:38;;;;;;;15.33;9.70;;;;;;;;;;777896;177;633376;-67
2023/12/18 01:28:04;;;;;;;16.97;10.53;;;;;;;;;;779661;180;627942;-58
2023/12/18 01:30:30;;;;;;;19.20;10.40;;;;;;;;;;777646;181;630531;-58
2023/12/18 01:32:56;;;;;;;15.60;9.90;;;;;;;;;;775033;178;624088;-58
2023/12/18 01:35:22;;;;;;;14.37;10.47;;;;;;;;;;774823;180;626596;-66
2023/12/18 01:37:48;;;;;;;15.10;9.63;;;;;;;;;;783217;180;621947;-67
2023/12/18 01:40:14;;;;;;;15.83;10.30;;;;;;;;;;779194;177;665715;-67
2023/12/18 01:42:40;;;;;;;16.47;10.30;;;;;;;;;;777302;177;627325;-59
2023/12/18 01:45:05;;;;;;;17.20;9.50;;;;;;;;;;781288;179;630141;-66
2023/12/18 01:47:31;;;;;;;19.47;11.43;;;;;;;;;;778926;179;627039;-66
2023/12/18 01:49:57;;;;;;;14.43;11.37;;;;;;;;;;776109;181;751496;-66
2023/12/18 01:52:23;;;;;;;14.73;9.27;;;;;;;;;;778718;177;626663;-59
2023/12/18 01:54:49;;;;;;;14.73;9.93;;;;;;;;;;770805;180;624315;-66
2023/12/18 01:57:15;;;;;;;16.17;10.60;;;;;;;;;;771118;180;818825;-66
2023/12/18 01:59:40;;;;;;;14.93;9.40;;;;;;;;;;772362;179;833347;-66
2023/12/18 02:02:06;;;;;;;16.90;10.23;;;;;;;;;;776344;180;917766;-58
2023/12/18 02:04:32;;;;;;;20.93;10.30;;;;;;;;;;774050;180;916406;-59
2023/12/18 02:06:58;;;;;;;16.70;9.53;;;;;;;;;;777625;178;817205;-59
2023/12/18 02:09:24;;;;;;;18.20;10.67;;;;;;;;;;781807;180;621069;-67
2023/12/18 02:11:50;;;;;;;17.47;9.83;;;;;;;;;;774153;180;918306;-66
2023/12/18 02:14:15;;;;;;;16.13;9.90;;;;;;;;;;774777;180;638275;-66
2023/12/18 02:16:42;;;;;;;15.15;9.13;;;;;;;;;;779460;179;630759;-59
2023/12/18 02:19:13;;;;;;;14.37;10.37;;;;;;;;;;776303;180;632248;-59
2023/12/18 02:21:39;;;;;;;13.13;9.80;;;;;;;;;;769507;180;619040;-65
2023/12/18 02:24:05;;;;;;;16.63;10.63;;;;;;;;;;776328;179;621061;-58
2023/12/18 02:26:31;;;;;;;17.97;10.67;;;;;;;;;;782461;177;634061;-58
2023/12/18 02:28:57;;;;;;;20.57;10.17;;;;;;;;;;767016;181;624929;-59
2023/12/18 02:31:22;;;;;;;19.67;10.07;;;;;;;;;;779215;180;626358;-66
2023/12/18 02:33:49;;;;;;;15.50;9.20;;;;;;;;;;777767;179;616270;-58
2023/12/18 02:36:15;;;;;;;15.13;9.67;;;;;;;;;;772375;177;666418;-67
2023/12/18 02:38:40;;;;;;;16.57;10.20;;;;;;;;;;778344;180;628555;-59
2023/12/18 02:41:06;;;;;;;15.90;9.93;;;;;;;;;;772628;179;919007;-59
2023/12/18 02:43:32;;;;;;;18.60;10.87;;;;;;;;;;782590;180;622969;-67
2023/12/18 02:45:57;;;;;;;17.13;10.77;;;;;;;;;;775100;178;630109;-67
2023/12/18 02:48:23;;;;;;;16.60;10.87;;;;;;;;;;779060;180;650831;-59
2023/12/18 02:50:49;;;;;;;18.37;11.60;;;;;;;;;;782427;177;618775;-66
2023/12/18 02:53:16;;;;;;;18.60;11.10;;;;;;;;;;778940;181;626910;-61
2023/12/18 02:55:41;;;;;;;19.73;10.17;;;;;;;;;;782257;178;629810;-67
2023/12/18 02:58:07;;;;;;;16.53;10.47;;;;;;;;;;780835;177;631638;-67
2023/12/18 03:00:33;;;;;;;15.53;10.37;;;;;;;;;;765998;180;636259;-59
2023/12/18 03:02:58;;;;;;;17.07;10.93;;;;;;;;;;764811;178;634042;-66
2023/12/18 03:05:24;;;;;;;21.60;11.40;;;;;;;;;;776837;177;619015;-58
2023/12/18 03:07:50;;;;;;;19.00;11.50;;;;;;;;;;777299;180;623662;-59
2023/12/18 03:10:16;;;;;;;23.70;12.17;;;;;;;;;;777891;179;629022;-65
2023/12/18 03:12:42;;;;;;;20.57;12.53;;;;;;;;;;778752;179;637383;-65
2023/12/18 03:15:08;;;;;;;18.60;11.80;;;;;;;;;;782062;179;618829;-66
2023/12/18 03:17:34;;;;;;;19.17;10.63;;;;;;;;;;777553;177;632489;-67
2023/12/18 03:20:00;;;;;;;20.20;11.83;;;;;;;;;;775309;180;637102;-67
2023/12/18 03:22:26;;;;;;;17.70;11.10;;;;;;;;;;780831;177;618411;-66
2023/12/18 03:24:51;;;;;;;15.10;9.80;;;;;;;;;;780436;180;623198;-58
2023/12/18 03:27:17;;;;;;;15.83;10.87;;;;;;;;;;776906;178;627802;-59
2023/12/18 03:29:43;;;;;;;20.40;11.40;;;;;;;;;;769244;180;633569;-59
2023/12/18 03:32:09;;;;;;;17.07;11.30;;;;;;;;;;777606;178;624104;-58
2023/12/18 03:34:35;;;;;;;19.37;11.40;;;;;;;;;;776696;181;626136;-67
2023/12/18 03:37:01;;;;;;;18.13;10.77;;;;;;;;;;778130;177;625164;-59
2023/12/18 03:39:26;;;;;;;17.00;9.67;;;;;;;;;;780533;180;628875;-66
2023/12/18 03:41:52;;;;;;;14.43;10.07;;;;;;;;;;781803;179;627588;-67
2023/12/18 03:44:18;;;;;;;17.03;9.67;;;;;;;;;;779771;180;628972;-66
2023/12/18 03:46:44;;;;;;;17.20;10.13;;;;;;;;;;783027;180;622072;-59
2023/12/18 03:49:10;;;;;;;20.10;11.30;;;;;;;;;;779814;177;865536;-66
2023/12/18 03:51:36;;;;;;;19.60;12.53;;;;;;;;;;762666;183;818834;-67
2023/12/18 03:54:02;;;;;;;17.47;11.07;;;;;;;;;;779113;178;628999;-66
2023/12/18 03:56:27;;;;;;;16.20;9.48;;;;;;;;;;778336;178;627271;-66
2023/12/18 03:58:53;;;;;;;19.83;10.40;;;;;;;;;;777476;179;628349;-66
2023/12/18 04:01:19;;;;;;;17.30;9.23;;;;;;;;;;778161;180;626494;-59
2023/12/18 04:03:45;;;;;;;19.30;10.80;;;;;;;;;;781863;180;627605;-58
2023/12/18 04:06:11;;;;;;;20.40;11.43;;;;;;;;;;774274;178;627809;-66
2023/12/18 04:08:37;;;;;;;20.50;12.90;;;;;;;;;;771325;181;816713;-61
2023/12/18 04:11:03;;;;;;;18.77;11.57;;;;;;;;;;778489;180;617862;-65
2023/12/18 04:13:28;;;;;;;18.10;11.50;;;;;;;;;;770454;180;627045;-68
2023/12/18 04:15:54;;;;;;;21.03;12.47;;;;;;;;;;777054;177;620929;-59
2023/12/18 04:18:20;;;;;;;21.23;11.80;;;;;;;;;;776556;177;635058;-67
2023/12/18 04:20:46;;;;;;;16.83;10.50;;;;;;;;;;774716;179;629363;-66
2023/12/18 04:23:12;;;;;;;14.13;9.30;;;;;;;;;;773958;177;626902;-66
2023/12/18 04:25:38;;;;;;;16.47;10.80;;;;;;;;;;777051;180;630757;-66
2023/12/18 04:28:04;;;;;;;14.73;9.70;;;;;;;;;;769864;180;634080;-67
2023/12/18 04:30:29;;;;;;;15.63;9.83;;;;;;;;;;771968;180;630115;-59
2023/12/18 04:32:55;;;;;;;16.90;11.07;;;;;;;;;;775943;180;629862;-66
2023/12/18 04:35:21;;;;;;;20.23;11.40;;;;;;;;;;780432;180;625446;-59
2023/12/18 04:37:47;;;;;;;14.10;10.13;;;;;;;;;;776959;181;623017;-66
2023/12/18 04:40:13;;;;;;;16.80;11.03;;;;;;;;;;774028;179;673028;-66
2023/12/18 04:42:39;;;;;;;21.10;11.70;;;;;;;;;;780708;177;623265;-59
2023/12/18 04:45:05;;;;;;;16.33;10.20;;;;;;;;;;777045;180;633504;-59
2023/12/18 04:47:31;;;;;;;17.37;11.20;;;;;;;;;;773703;180;623195;-59
2023/12/18 04:49:56;;;;;;;15.13;10.80;;;;;;;;;;779968;178;613326;-59
2023/12/18 04:52:22;;;;;;;20.20;11.50;;;;;;;;;;776380;178;630539;-59
2023/12/18 04:54:48;;;;;;;18.93;10.60;;;;;;;;;;778055;180;618182;-59
2023/12/18 04:57:14;;;;;;;18.20;11.50;;;;;;;;;;772979;180;622559;-67
2023/12/18 04:59:40;;;;;;;17.90;10.13;;;;;;;;;;772646;178;618547;-66
2023/12/18 05:02:06;;;;;;;16.60;11.33;;;;;;;;;;776345;177;624423;-59
2023/12/18 05:04:32;;;;;;;17.27;10.10;;;;;;;;;;766319;182;633495;-65
2023/12/18 05:06:57;;;;;;;18.67;10.67;;;;;;;;;;774847;181;626471;-66
2023/12/18 05:09:23;;;;;;;19.83;11.43;;;;;;;;;;777555;177;625126;-59
2023/12/18 05:11:49;;;;;;;15.00;10.43;;;;;;;;;;776533;180;629940;-59
2023/12/18 05:14:15;;;;;;;20.13;11.60;;;;;;;;;;780784;179;624023;-66
2023/12/18 05:16:41;;;;;;;16.50;10.83;;;;;;;;;;775002;180;634385;-59
2023/12/18 05:19:07;;;;;;;20.00;11.97;;;;;;;;;;776665;180;626219;-66
2023/12/18 05:21:32;;;;;;;16.33;10.37;;;;;;;;;;776967;180;644895;-66
2023/12/18 05:23:58;;;;;;;25.57;12.00;;;;;;;;;;777685;180;621304;-59
2023/12/18 05:26:24;;;;;;;23.13;13.83;;;;;;;;;;775008;178;627201;-66
2023/12/18 05:28:50;;;;;;;24.83;13.33;;;;;;;;;;775778;180;632697;-66
2023/12/18 05:31:18;;;;;;;21.00;11.30;;;;;;;;;;778029;180;627391;-67
2023/12/18 05:33:42;;;;;;;16.60;10.93;;;;;;;;;;775827;180;623712;-60
2023/12/18 05:36:08;;;;;;;17.00;11.37;;;;;;;;;;774997;178;631743;-59
2023/12/18 05:38:33;;;;;;;17.57;10.47;;;;;;;;;;768623;180;628821;-59
2023/12/18 05:40:59;;;;;;;16.90;11.43;;;;;;;;;;775470;178;636249;-66
2023/12/18 05:43:25;;;;;;;22.30;11.63;;;;;;;;;;778750;177;624079;-59
2023/12/18 05:45:51;;;;;;;16.97;10.53;;;;;;;;;;779151;177;625548;-66
2023/12/18 05:48:17;;;;;;;20.40;14.00;;;;;;;;;;775865;178;617413;-66
2023/12/18 05:50:43;;;;;;;18.27;12.30;;;;;;;;;;776477;178;626503;-59
2023/12/18 05:53:08;;;;;;;20.40;11.87;;;;;;;;;;777281;180;622916;-60
2023/12/18 05:55:34;;;;;;;19.17;12.13;;;;;;;;;;778188;181;629844;-66
2023/12/18 05:58:00;;;;;;;18.67;12.47;;;;;;;;;;777377;180;627326;-66
2023/12/18 06:00:26;;;;;;;28.97;12.03;;;;;;;;;;774691;179;647498;-59
2023/12/18 06:02:53;;;;;;;17.60;11.80;;;;;;;;;;764993;181;643245;-59
2023/12/18 06:05:18;;;;;;;17.53;10.43;;;;;;;;;;775197;179;648810;-66
2023/12/18 06:07:44;;;;;;;17.27;12.23;;;;;;;;;;778893;179;623314;-66
2023/12/18 06:10:11;;;;;;;16.52;10.75;;;;;;;;;;779825;178;648169;-65
2023/12/18 06:12:36;;;;;;;18.43;12.00;;;;;;;;;;773704;180;629565;-59
2023/12/18 06:15:02;;;;;;;20.23;11.47;;;;;;;;;;770576;181;629073;-66
2023/12/18 06:17:28;;;;;;;17.33;11.87;;;;;;;;;;777693;180;643852;-59
2023/12/18 06:19:54;;;;;;;17.73;12.33;;;;;;;;;;780909;177;637691;-59
2023/12/18 06:22:22;;;;;;;20.40;11.93;;;;;;;;;;778818;178;633285;-65
2023/12/18 06:24:46;;;;;;;18.25;11.25;;;;;;;;;;775151;179;877692;-65
2023/12/18 06:27:12;;;;;;;17.27;11.27;;;;;;;;;;777048;180;913793;-58
2023/12/18 06:29:38;;;;;;;16.00;10.27;;;;;;;;;;772327;180;918241;-62
2023/12/18 06:32:04;;;;;;;23.70;13.87;;;;;;;;;;768655;180;918010;-58
2023/12/18 06:34:30;;;;;;;23.87;13.70;;;;;;;;;;781151;177;919054;-67
2023/12/18 06:36:56;;;;;;;25.40;14.77;;;;;;;;;;763383;180;918351;-65
2023/12/18 06:39:22;;;;;;;16.20;11.10;;;;;;;;;;766096;178;920664;-66
2023/12/18 06:41:48;;;;;;;19.97;12.07;;;;;;;;;;771295;179;920076;-58
2023/12/18 06:44:13;;;;;;;26.03;15.77;;;;;;;;;;778301;177;943552;-59
2023/12/18 06:46:39;;;;;;;27.97;17.37;;;;;;;;;;774720;178;916680;-58
2023/12/18 06:49:05;;;;;;;24.70;15.20;;;;;;;;;;773698;180;919260;-59
2023/12/18 06:51:31;;;;;;;25.33;16.30;;;;;;;;;;778651;180;917258;-58
2023/12/18 06:53:57;;;;;;;24.60;12.90;;;;;;;;;;773170;180;919346;-66
2023/12/18 06:56:23;;;;;;;21.53;13.47;;;;;;;;;;771975;181;918908;-65
2023/12/18 06:58:48;;;;;;;18.70;12.40;;;;;;;;;;770614;180;917894;-66
2023/12/18 07:01:15;;;;;;;23.60;15.47;;;;;;;;;;769530;180;919309;-65
2023/12/18 07:03:40;;;;;;;22.90;14.30;;;;;;;;;;770912;180;919130;-59
2023/12/18 07:06:06;;;;;;;23.70;13.60;;;;;;;;;;772471;177;917363;-59
2023/12/18 07:08:32;;;;;;;23.73;13.57;;;;;;;;;;766233;182;918378;-58
2023/12/18 07:10:58;;;;;;;18.90;12.37;;;;;;;;;;756652;180;919546;-58
2023/12/18 07:13:24;;;;;;;18.90;12.53;;;;;;;;;;767746;180;919931;-65
2023/12/18 07:15:49;;;;;;;18.63;11.87;;;;;;;;;;776860;177;919882;-59
2023/12/18 07:18:15;;;;;;;21.60;13.67;;;;;;;;;;774698;179;916446;-58
2023/12/18 07:20:43;;;;;;;20.62;14.63;;;;;;;;;;774149;180;919586;-59
2023/12/18 07:23:07;;;;;;;21.40;13.63;;;;;;;;;;774300;180;920825;-65
2023/12/18 07:25:33;;;;;;;23.65;13.40;;;;;;;;;;775118;177;904184;-65
2023/12/18 07:27:59;;;;;;;24.93;12.57;;;;;;;;;;774362;180;874771;-59
2023/12/18 07:30:24;;;;;;;20.90;12.57;;;;;;;;;;778499;177;917735;-66
2023/12/18 07:32:50;;;;;;;18.07;13.10;;;;;;;;;;773940;179;918942;-59
2023/12/18 07:35:16;;;;;;;21.48;13.25;;;;;;;;;;772322;180;918474;-66
2023/12/18 07:37:42;;;;;;;16.63;12.33;;;;;;;;;;774997;180;919380;-65
2023/12/18 07:40:08;;;;;;;20.40;13.87;;;;;;;;;;778688;180;919689;-58
2023/12/18 07:42:34;;;;;;;24.80;16.30;;;;;;;;;;769486;180;922688;-65
2023/12/18 07:45:00;;;;;;;19.40;13.17;;;;;;;;;;761838;183;917690;-64
2023/12/18 07:47:26;;;;;;;24.57;15.93;;;;;;;;;;769132;181;927057;-66
2023/12/18 07:49:52;;;;;;;25.37;17.23;;;;;;;;;;771494;178;918122;-66
2023/12/18 07:52:17;;;;;;;23.30;15.47;;;;;;;;;;775089;180;916539;-58
2023/12/18 07:54:43;;;;;;;26.60;18.83;;;;;;;;;;777677;180;919212;-59
2023/12/18 07:57:09;;;;;;;28.10;18.83;;;;;;;;;;771227;181;921824;-59
2023/12/18 07:59:39;;;;;;;30.33;19.20;;;;;;;;;;770946;180;1010626;-59
2023/12/18 08:02:02;;;;;;;46.73;21.90;;;;;;;;;;771233;181;916027;-63
2023/12/18 08:04:27;;;;;;;27.10;18.60;;;;;;;;;;773070;178;916514;-64
2023/12/18 08:06:53;;;;;;;21.97;15.10;;;;;;;;;;769020;181;631351;-64
2023/12/18 08:09:19;;;;;;;28.00;16.23;;;;;;;;;;773563;181;621664;-60
2023/12/18 08:11:45;;;;;;;22.70;16.60;;;;;;;;;;778639;181;618215;-59
2023/12/18 08:14:11;;;;;;;22.13;15.10;;;;;;;;;;769878;180;815244;-66
2023/12/18 08:16:37;;;;;;;22.33;15.37;;;;;;;;;;772118;180;629838;-61
2023/12/18 08:19:03;;;;;;;21.63;13.40;;;;;;;;;;782525;179;785747;-66
2023/12/18 08:21:28;;;;;;;19.50;12.23;;;;;;;;;;764231;177;915785;-61
2023/12/18 08:23:54;;;;;;;20.97;13.10;;;;;;;;;;765811;181;915991;-68
2023/12/18 08:26:20;;;;;;;18.83;14.47;;;;;;;;;;781214;180;619901;-68
2023/12/18 08:28:46;;;;;;;19.00;11.13;;;;;;;;;;782454;177;621896;-62
2023/12/18 08:31:12;;;;;;;17.20;11.43;;;;;;;;;;777335;180;912423;-62
2023/12/18 08:33:38;;;;;;;19.30;9.73;;;;;;;;;;774702;180;918415;-63
2023/12/18 08:36:04;;;;;;;20.13;12.50;;;;;;;;;;777834;177;849918;-63
2023/12/18 08:38:30;;;;;;;17.30;10.40;;;;;;;;;;771759;181;919157;-69
2023/12/18 08:40:56;;;;;;;18.93;10.50;;;;;;;;;;773923;178;915310;-67
2023/12/18 08:43:22;;;;;;;16.17;10.00;;;;;;;;;;773795;180;918635;-68
2023/12/18 08:45:48;;;;;;;16.10;10.67;;;;;;;;;;769550;180;919240;-64
2023/12/18 08:48:14;;;;;;;16.87;10.13;;;;;;;;;;771404;180;918952;-69
2023/12/18 08:50:40;;;;;;;18.80;12.23;;;;;;;;;;778534;180;822036;-68
2023/12/18 08:53:05;;;;;;;17.63;11.10;;;;;;;;;;775256;178;917440;-67
2023/12/18 08:55:32;;;;;;;18.10;11.87;;;;;;;;;;773185;180;819530;-68
2023/12/18 08:57:57;;;;;;;20.93;11.60;;;;;;;;;;776305;177;816774;-68
2023/12/18 09:00:23;;;;;;;17.43;11.37;;;;;;;;;;769020;181;908134;-68
2023/12/18 09:02:49;;;;;;;15.98;11.07;;;;;;;;;;772915;180;917149;-62
2023/12/18 09:05:15;;;;;;;17.93;10.83;;;;;;;;;;772352;180;923161;-68
2023/12/18 09:07:41;;;;;;;18.23;12.05;;;;;;;;;;776810;180;918936;-67
2023/12/18 09:10:07;;;;;;;15.90;11.70;;;;;;;;;;772259;180;919588;-68
2023/12/18 09:12:33;;;;;;;19.50;12.20;;;;;;;;;;771206;180;923019;-69
2023/12/18 09:14:59;;;;;;;19.37;11.57;;;;;;;;;;764744;181;950308;-68
2023/12/18 09:17:26;;;;;;;15.87;10.80;;;;;;;;;;770828;180;919527;-61
2023/12/18 09:19:50;;;;;;;14.40;10.80;;;;;;;;;;771310;180;883841;-70
2023/12/18 09:22:16;;;;;;;17.73;10.83;;;;;;;;;;772691;180;824105;-62
2023/12/18 09:24:42;;;;;;;16.53;9.60;;;;;;;;;;769191;181;917540;-70
2023/12/18 09:27:08;;;;;;;15.33;9.93;;;;;;;;;;763722;178;920083;-62
2023/12/18 09:29:34;;;;;;;16.60;10.20;;;;;;;;;;770398;180;876619;-61
2023/12/18 09:32:00;;;;;;;19.50;11.00;;;;;;;;;;774585;177;908503;-73
2023/12/18 09:34:26;;;;;;;16.10;11.50;;;;;;;;;;767243;180;923315;-74
2023/12/18 09:36:51;;;;;;;13.97;9.57;;;;;;;;;;777078;180;918872;-73
2023/12/18 09:39:17;;;;;;;16.13;10.63;;;;;;;;;;767322;182;981140;-73
2023/12/18 09:41:43;;;;;;;19.67;9.73;;;;;;;;;;746331;186;919500;-73
2023/12/18 09:44:09;;;;;;;14.50;9.40;;;;;;;;;;776817;179;918392;-74
2023/12/18 09:46:35;;;;;;;13.40;9.00;;;;;;;;;;783577;179;918269;-73
2023/12/18 09:49:01;;;;;;;15.52;10.63;;;;;;;;;;772985;178;919119;-74
2023/12/18 09:51:27;;;;;;;15.32;10.27;;;;;;;;;;773870;179;1014221;-73
2023/12/18 09:53:52;;;;;;;13.80;9.73;;;;;;;;;;780137;179;917139;-73
2023/12/18 09:56:21;;;;;;;16.47;10.20;;;;;;;;;;780354;179;917352;-74
2023/12/18 09:58:47;;;;;;;16.20;10.57;;;;;;;;;;777619;179;920306;-73
2023/12/18 10:01:13;;;;;;;18.70;11.63;;;;;;;;;;774687;179;908149;-74
2023/12/18 10:03:39;;;;;;;16.90;10.50;;;;;;;;;;780009;179;919085;-73
2023/12/18 10:06:05;;;;;;;18.10;9.50;;;;;;;;;;776755;179;1026477;-74
2023/12/18 10:08:31;;;;;;;21.80;10.77;;;;;;;;;;777094;179;917569;-74
2023/12/18 10:10:56;;;;;;;15.07;10.03;;;;;;;;;;781259;179;1018199;-73
2023/12/18 10:13:25;;;;;;;14.60;8.73;;;;;;;;;;777154;179;918073;-73
2023/12/18 10:15:50;;;;;;;16.20;10.40;;;;;;;;;;768879;179;1024156;-74
2023/12/18 10:18:17;;;;;;;16.23;9.90;;;;;;;;;;774584;180;1022545;-73
2023/12/18 10:20:43;;;;;;;17.63;10.70;;;;;;;;;;777282;179;942372;-73
2023/12/18 10:23:09;;;;;;;19.53;10.87;;;;;;;;;;774796;179;943099;-75
2023/12/18 10:25:35;;;;;;;20.30;11.32;;;;;;;;;;775848;179;918399;-68
2023/12/18 10:28:01;;;;;;;19.53;11.43;;;;;;;;;;765178;183;817038;-68
2023/12/18 10:30:28;;;;;;;17.40;9.93;;;;;;;;;;759097;183;918458;-70
2023/12/18 10:32:52;;;;;;;15.10;9.43;;;;;;;;;;758065;183;919869;-62
2023/12/18 10:35:19;;;;;;;14.43;10.57;;;;;;;;;;763485;183;918108;-67
2023/12/18 10:37:46;;;;;;;18.67;12.13;;;;;;;;;;770486;180;904946;-62
2023/12/18 10:40:12;;;;;;;17.95;10.10;;;;;;;;;;759139;183;920867;-68
2023/12/18 10:42:38;;;;;;;19.65;11.07;;;;;;;;;;757807;183;921727;-62
2023/12/18 10:45:07;;;;;;;19.03;10.10;;;;;;;;;;766317;183;716352;-70
2023/12/18 10:47:32;;;;;;;15.70;9.97;;;;;;;;;;761686;183;918594;-62
2023/12/18 10:50:00;;;;;;;16.10;9.17;;;;;;;;;;760417;182;920774;-69
2023/12/18 10:52:25;;;;;;;12.53;9.07;;;;;;;;;;767247;183;813311;-69
2023/12/18 10:54:51;;;;;;;15.43;10.00;;;;;;;;;;763753;181;918497;-69
2023/12/18 10:57:17;;;;;;;17.80;8.00;;;;;;;;;;761178;183;865136;-63
2023/12/18 10:59:43;;;;;;;17.83;9.03;;;;;;;;;;759837;183;819367;-63
2023/12/18 11:02:08;;;;;;;13.03;9.30;;;;;;;;;;763510;181;919263;-69
2023/12/18 11:04:36;;;;;;;12.20;8.43;;;;;;;;;;759551;183;919067;-71
2023/12/18 11:07:00;;;;;;;14.40;8.53;;;;;;;;;;758716;182;935266;-69
2023/12/18 11:09:26;;;;;;;15.40;8.43;;;;;;;;;;765503;183;898185;-69
2023/12/18 11:11:52;;;;;;;14.70;10.00;;;;;;;;;;762129;181;833368;-61
2023/12/18 11:14:36;;;;;;;18.83;8.77;;;;;;;;;;760124;183;1017050;-62
2023/12/18 11:17:04;;;;;;;13.43;8.67;;;;;;;;;;758893;183;816382;-69
2023/12/18 11:19:34;;;;;;;18.07;9.60;;;;;;;;;;763404;183;818429;-62
2023/12/18 11:22:04;;;;;;;17.30;10.67;;;;;;;;;;763983;181;818216;-69
2023/12/18 11:24:28;;;;;;;15.50;10.60;;;;;;;;;;758297;183;1022122;-70
2023/12/18 11:26:54;;;;;;;14.60;10.00;;;;;;;;;;757659;183;1022726;-62
2023/12/18 11:29:26;;;;;;;15.37;10.37;;;;;;;;;;765189;183;713008;-62
2023/12/18 11:31:53;;;;;;;12.53;8.90;;;;;;;;;;764125;181;991333;-61
2023/12/18 11:34:18;;;;;;;17.90;9.37;;;;;;;;;;758662;183;917948;-70
2023/12/18 11:36:44;;;;;;;13.87;9.77;;;;;;;;;;760963;182;817127;-68
2023/12/18 11:39:10;;;;;;;19.70;9.80;;;;;;;;;;765532;183;915082;-69
2023/12/18 11:41:38;;;;;;;16.20;8.60;;;;;;;;;;760046;183;898309;-63
2023/12/18 11:44:06;;;;;;;12.10;8.20;;;;;;;;;;760026;183;918529;-61
2023/12/18 11:46:33;;;;;;;13.38;8.80;;;;;;;;;;763868;183;818192;-70
2023/12/18 11:48:59;;;;;;;15.20;9.18;;;;;;;;;;758012;181;919432;-64
2023/12/18 11:51:24;;;;;;;19.93;9.97;;;;;;;;;;759675;183;918433;-68
2023/12/18 11:53:51;;;;;;;13.07;7.63;;;;;;;;;;760700;183;816152;-69
2023/12/18 11:56:17;;;;;;;17.62;9.95;;;;;;;;;;764336;183;919124;-70
2023/12/18 11:58:43;;;;;;;11.30;7.30;;;;;;;;;;759116;183;816440;-61
2023/12/18 12:01:09;;;;;;;11.43;8.00;;;;;;;;;;758952;183;919048;-70
2023/12/18 12:03:35;;;;;;;16.10;9.63;;;;;;;;;;766034;183;919621;-62
2023/12/18 12:06:02;;;;;;;14.97;9.73;;;;;;;;;;762106;183;919636;-68
2023/12/18 12:08:26;;;;;;;16.07;10.07;;;;;;;;;;761874;181;834392;-62
2023/12/18 12:10:52;;;;;;;14.10;9.10;;;;;;;;;;766088;183;788526;-69
2023/12/18 12:13:21;;;;;;;13.60;9.80;;;;;;;;;;759332;183;910721;-63
2023/12/18 12:15:51;;;;;;;17.70;10.03;;;;;;;;;;759885;182;892366;-70
2023/12/18 12:18:18;;;;;;;12.90;9.60;;;;;;;;;;758952;181;919982;-62
2023/12/18 12:20:44;;;;;;;15.30;9.77;;;;;;;;;;764485;182;922040;-62
2023/12/18 12:23:11;;;;;;;13.73;9.27;;;;;;;;;;759407;183;921326;-69
2023/12/18 12:25:36;;;;;;;14.47;9.80;;;;;;;;;;759634;183;914150;-69
2023/12/18 12:28:03;;;;;;;15.57;8.70;;;;;;;;;;766057;183;918287;-69
2023/12/18 12:30:29;;;;;;;14.07;10.10;;;;;;;;;;759681;183;919499;-62
2023/12/18 12:32:55;;;;;;;16.60;11.40;;;;;;;;;;760759;183;918916;-70
2023/12/18 12:35:20;;;;;;;12.60;8.40;;;;;;;;;;757508;183;947819;-69
2023/12/18 12:37:46;;;;;;;17.63;11.27;;;;;;;;;;764783;182;820369;-62
2023/12/18 12:40:12;;;;;;;14.37;9.77;;;;;;;;;;756937;183;917106;-69
2023/12/18 12:42:38;;;;;;;16.70;10.40;;;;;;;;;;759629;183;841099;-69
2023/12/18 12:45:04;;;;;;;16.47;11.33;;;;;;;;;;763448;181;850825;-62
2023/12/18 12:47:30;;;;;;;18.83;10.50;;;;;;;;;;758605;183;918872;-63
2023/12/18 12:49:56;;;;;;;19.03;11.40;;;;;;;;;;760973;183;853962;-69
2023/12/18 12:52:21;;;;;;;15.70;10.33;;;;;;;;;;763252;183;803145;-69
2023/12/18 12:54:47;;;;;;;16.67;10.17;;;;;;;;;;761216;182;813860;-62
2023/12/18 12:57:14;;;;;;;18.23;12.10;;;;;;;;;;763501;181;646909;-62
2023/12/18 12:59:45;;;;;;;16.40;10.80;;;;;;;;;;763778;183;633392;-68
2023/12/18 13:02:11;;;;;;;17.97;12.43;;;;;;;;;;774095;180;628823;-69
2023/12/18 13:04:37;;;;;;;17.97;9.97;;;;;;;;;;762912;180;633623;-69
2023/12/18 13:07:03;;;;;;;21.75;11.55;;;;;;;;;;760198;183;816955;-65
2023/12/18 13:09:29;;;;;;;18.23;11.33;;;;;;;;;;765184;183;723254;-69
2023/12/18 13:11:55;;;;;;;20.47;10.87;;;;;;;;;;757814;183;919468;-62
2023/12/18 13:14:21;;;;;;;18.90;11.83;;;;;;;;;;762217;181;898309;-69
2023/12/18 13:16:46;;;;;;;21.13;12.03;;;;;;;;;;760479;183;916930;-68
2023/12/18 13:19:12;;;;;;;21.53;12.47;;;;;;;;;;772643;179;921830;-62
2023/12/18 13:21:38;;;;;;;16.50;11.60;;;;;;;;;;761751;183;895721;-62
2023/12/18 13:24:04;;;;;;;21.00;12.37;;;;;;;;;;760738;183;913783;-68
2023/12/18 13:26:30;;;;;;;26.80;13.53;;;;;;;;;;763352;182;919080;-63
2023/12/18 13:28:56;;;;;;;24.85;13.18;;;;;;;;;;758858;183;919200;-68
2023/12/18 13:31:22;;;;;;;22.17;13.87;;;;;;;;;;758407;183;922718;-62
2023/12/18 13:33:47;;;;;;;24.60;15.30;;;;;;;;;;765405;183;823560;-70
2023/12/18 13:36:13;;;;;;;19.50;12.60;;;;;;;;;;761312;183;919897;-62
2023/12/18 13:38:39;;;;;;;22.73;14.00;;;;;;;;;;761446;180;817487;-63
2023/12/18 13:41:05;;;;;;;23.40;13.67;;;;;;;;;;764207;183;910041;-69
2023/12/18 13:43:31;;;;;;;22.50;13.70;;;;;;;;;;760586;183;919248;-69
2023/12/18 13:45:57;;;;;;;28.10;15.60;;;;;;;;;;759770;183;914339;-69
2023/12/18 13:48:23;;;;;;;22.13;13.20;;;;;;;;;;759988;183;917509;-62
2023/12/18 13:50:49;;;;;;;24.97;14.33;;;;;;;;;;762276;183;919861;-63
2023/12/18 13:53:15;;;;;;;22.67;14.02;;;;;;;;;;760613;181;915368;-62
2023/12/18 13:55:40;;;;;;;21.80;13.23;;;;;;;;;;759714;183;923210;-63
2023/12/18 13:58:06;;;;;;;21.50;13.20;;;;;;;;;;764570;180;918415;-63